Time;durP1;ratioP1;P1;durP2;ratioP2;P2;SDS_P1;SDS_P2;PMS_P1;PMS_P2;Temp;Humidity;BMP_temperature;BMP_pressure;BME280_temperature;BME280_humidity;BME280_pressure;Samples;Min_cycle;Max_cycle;Signal;HPM_P1;HPM_P2
2022/12/21 03:48:08;;;;;;;4.00;1.60;;;7.50;90.70;;;;;;5065587;23;89359;-68
2022/12/21 03:50:38;;;;;;;7.00;2.17;;;7.60;91.30;;;;;;4905549;28;86412;-67
2022/12/21 03:53:33;;;;;;;8.77;2.97;;;7.50;91.40;;;;;;4903983;28;86759;-68
2022/12/21 03:56:03;;;;;;;10.57;3.53;;;7.50;92.10;;;;;;4875132;28;87108;-68
2022/12/21 03:58:29;;;;;;;8.18;3.97;;;7.40;92.50;;;;;;4902154;28;86413;-68
2022/12/21 04:01:13;;;;;;;10.52;4.40;;;7.40;92.80;;;;;;4911955;28;86326;-69
2022/12/21 04:03:42;;;;;;;11.32;4.80;;;7.40;93.20;;;;;;4910687;28;85984;-69
2022/12/21 04:06:14;;;;;;;12.68;5.30;;;7.40;93.30;;;;;;4904694;28;88260;-69
2022/12/21 04:08:40;;;;;;;10.15;4.88;;;7.40;93.50;;;;;;4907406;28;86364;-69
2022/12/21 04:11:06;;;;;;;12.77;5.38;;;7.40;93.60;;;;;;4903905;28;87605;-69
2022/12/21 04:13:34;;;;;;;12.68;5.75;;;7.40;94.00;;;;;;4913271;28;86766;-69
2022/12/21 04:16:05;;;;;;;10.38;5.00;;;7.30;94.00;;;;;;4905541;28;87108;-69
2022/12/21 04:21:17;;;;;;;11.60;4.88;;;7.30;94.10;;;;;;4905271;28;86901;-70
2022/12/21 04:29:13;;;;;;;13.85;5.40;;;7.30;94.70;;;;;;4916835;28;86718;-71
2022/12/21 04:31:39;;;;;;;11.10;5.85;;;7.20;94.40;;;;;;4901511;28;86238;-69
2022/12/21 04:34:04;;;;;;;10.65;4.47;;;7.30;94.40;;;;;;4912705;28;86433;-69
2022/12/21 04:39:34;;;;;;;7.35;3.15;;;7.30;93.20;;;;;;4852181;29;87236;-68
2022/12/21 04:42:00;;;;;;;6.38;2.90;;;7.30;93.30;;;;;;4854020;29;86867;-68
2022/12/21 04:44:25;;;;;;;8.73;3.38;;;7.30;92.50;;;;;;4879644;28;86736;-68
2022/12/21 04:46:51;;;;;;;7.03;3.42;;;7.30;92.50;;;;;;4902855;28;87511;-68
2022/12/21 04:49:17;;;;;;;11.27;3.65;;;7.30;92.90;;;;;;4895627;28;86999;-68
2022/12/21 04:51:42;;;;;;;6.95;3.10;;;7.30;92.40;;;;;;4897963;28;86834;-69
2022/12/21 04:54:08;;;;;;;6.85;2.85;;;7.20;92.90;;;;;;4897048;28;85815;-68
2022/12/21 04:56:34;;;;;;;9.52;3.45;;;7.30;92.60;;;;;;4890488;28;86619;-68
2022/12/21 04:59:00;;;;;;;7.53;2.95;;;7.30;92.70;;;;;;4897595;28;86890;-69
2022/12/21 05:01:25;;;;;;;9.88;3.28;;;7.30;92.70;;;;;;4884344;28;87666;-69
2022/12/21 05:03:51;;;;;;;8.23;3.60;;;7.30;92.40;;;;;;4885501;28;87060;-69
2022/12/21 05:06:18;;;;;;;11.40;5.38;;;7.20;92.60;;;;;;4891160;28;86699;-68
2022/12/21 05:08:44;;;;;;;9.38;4.32;;;7.20;92.70;;;;;;4892874;28;86623;-69
2022/12/21 05:11:22;;;;;;;9.90;4.05;;;7.10;92.50;;;;;;4890823;28;87015;-69
2022/12/21 05:13:48;;;;;;;10.00;4.07;;;7.10;92.50;;;;;;4888761;28;88461;-68
2022/12/21 05:16:19;;;;;;;7.88;3.78;;;7.20;92.60;;;;;;4889569;28;87113;-68
2022/12/21 05:18:45;;;;;;;9.93;2.83;;;7.20;92.70;;;;;;4889303;28;86433;-69
2022/12/21 05:21:12;;;;;;;7.38;3.47;;;7.20;92.30;;;;;;4878385;28;86722;-68
2022/12/21 05:23:38;;;;;;;6.93;2.78;;;7.20;92.50;;;;;;4893882;28;86800;-67
2022/12/21 05:26:05;;;;;;;6.88;2.55;;;7.20;92.70;;;;;;4893396;28;87919;-68
2022/12/21 05:28:31;;;;;;;9.40;2.67;;;7.20;92.60;;;;;;4890272;28;87823;-68
2022/12/21 05:30:57;;;;;;;8.05;3.08;;;7.20;92.50;;;;;;4899690;28;86760;-67
2022/12/21 05:33:23;;;;;;;7.95;2.55;;;7.20;92.50;;;;;;4887272;28;86747;-68
2022/12/21 05:35:49;;;;;;;7.60;2.45;;;7.10;92.70;;;;;;4888025;28;87157;-70
2022/12/21 05:38:15;;;;;;;7.45;2.83;;;7.10;92.70;;;;;;4892989;28;86830;-70
2022/12/21 05:40:46;;;;;;;9.23;2.63;;;7.20;92.60;;;;;;4889386;28;86673;-68
2022/12/21 05:43:12;;;;;;;8.68;2.35;;;7.20;92.50;;;;;;4892140;28;86121;-69
2022/12/21 05:45:38;;;;;;;6.05;2.53;;;7.20;92.60;;;;;;4889171;28;87121;-68
2022/12/21 05:48:03;;;;;;;5.80;2.40;;;7.20;92.20;;;;;;4891128;28;86591;-68
2022/12/21 05:50:29;;;;;;;6.28;2.05;;;7.30;92.20;;;;;;4885692;28;88004;-68
2022/12/21 05:52:55;;;;;;;6.10;2.33;;;7.30;92.00;;;;;;4891419;28;86343;-68
2022/12/21 05:55:20;;;;;;;7.45;2.30;;;7.30;91.70;;;;;;4887500;28;87322;-71
2022/12/21 05:57:46;;;;;;;8.20;2.30;;;7.30;91.40;;;;;;4890627;28;87066;-71
2022/12/21 06:00:12;;;;;;;6.32;2.40;;;7.30;91.30;;;;;;4888994;28;86274;-71
2022/12/21 06:02:38;;;;;;;6.47;2.40;;;7.30;91.30;;;;;;4884074;28;86437;-71
2022/12/21 06:05:04;;;;;;;8.13;2.72;;;7.30;91.30;;;;;;4896052;28;87199;-71
2022/12/21 06:07:30;;;;;;;7.32;3.13;;;7.40;91.50;;;;;;4882702;28;86839;-71
2022/12/21 06:09:55;;;;;;;6.20;2.40;;;7.40;91.10;;;;;;4893062;28;87154;-72
2022/12/21 06:12:21;;;;;;;6.53;2.00;;;7.40;91.00;;;;;;4892226;28;86906;-72
2022/12/21 06:14:47;;;;;;;8.23;3.20;;;7.50;91.10;;;;;;4891028;28;87735;-72
2022/12/21 06:17:12;;;;;;;15.60;5.22;;;7.60;91.00;;;;;;4884939;28;87367;-70
2022/12/21 06:19:38;;;;;;;16.48;6.30;;;7.60;90.70;;;;;;4888067;28;86807;-70
2022/12/21 06:22:04;;;;;;;16.45;6.78;;;7.60;90.90;;;;;;4899359;28;86751;-70
2022/12/21 06:24:29;;;;;;;10.05;3.58;;;7.60;91.70;;;;;;4892158;28;86774;-70
2022/12/21 06:26:55;;;;;;;8.85;3.17;;;7.70;91.40;;;;;;4894811;28;86949;-70
2022/12/21 06:29:21;;;;;;;7.85;3.13;;;7.70;91.30;;;;;;4897609;28;86637;-70
2022/12/21 06:31:46;;;;;;;8.50;3.15;;;7.70;91.40;;;;;;4885901;28;85643;-70
2022/12/21 06:34:13;;;;;;;7.90;3.35;;;7.70;91.50;;;;;;4883220;28;87368;-70
2022/12/21 06:36:39;;;;;;;8.52;3.17;;;7.70;91.50;;;;;;4894056;28;87435;-70
2022/12/21 06:39:04;;;;;;;10.35;3.60;;;7.70;91.40;;;;;;4889482;28;87725;-70
2022/12/21 06:41:30;;;;;;;9.50;3.63;;;7.70;91.40;;;;;;4889050;28;87689;-71
2022/12/21 06:43:56;;;;;;;8.15;3.72;;;7.70;91.40;;;;;;4895672;28;87223;-71
2022/12/21 06:46:22;;;;;;;13.27;5.85;;;7.70;91.60;;;;;;4896191;28;88687;-71
2022/12/21 06:48:47;;;;;;;7.15;2.72;;;7.70;91.60;;;;;;4896091;28;86785;-71
2022/12/21 06:51:16;;;;;;;8.38;2.80;;;7.70;91.00;;;;;;4888745;28;86992;-71
2022/12/21 06:53:44;;;;;;;7.03;2.40;;;7.70;90.90;;;;;;4884353;28;86480;-71
2022/12/21 06:56:17;;;;;;;10.30;1.73;;;7.60;90.70;;;;;;4890541;28;86202;-71
2022/12/21 06:58:44;;;;;;;5.10;1.60;;;7.60;90.50;;;;;;4887895;28;86216;-71
2022/12/21 07:01:13;;;;;;;4.20;1.50;;;7.70;90.70;;;;;;4882535;28;86980;-71
2022/12/21 07:03:40;;;;;;;4.47;1.30;;;7.80;90.30;;;;;;4891912;28;88019;-71
2022/12/21 07:06:06;;;;;;;3.90;1.40;;;7.80;90.20;;;;;;4890186;28;87934;-71
2022/12/21 07:08:33;;;;;;;3.58;1.20;;;7.90;90.30;;;;;;4888378;28;86298;-71
2022/12/21 07:11:01;;;;;;;5.47;1.58;;;8.00;89.70;;;;;;4890207;28;87088;-71
2022/12/21 07:13:27;;;;;;;6.70;2.33;;;8.00;90.40;;;;;;4895082;28;89919;-71
2022/12/21 07:15:54;;;;;;;7.50;3.00;;;8.00;90.50;;;;;;4893114;28;86297;-71
2022/12/21 07:18:20;;;;;;;7.30;3.28;;;8.00;91.30;;;;;;4888859;28;86964;-71
2022/12/21 07:20:45;;;;;;;7.15;2.70;;;8.00;91.70;;;;;;4898872;28;86134;-71
2022/12/21 07:23:11;;;;;;;5.15;2.00;;;8.00;91.30;;;;;;4900063;28;87033;-71
2022/12/21 07:25:37;;;;;;;8.15;1.80;;;8.00;91.50;;;;;;4885242;28;87071;-71
2022/12/21 07:28:03;;;;;;;6.22;2.17;;;8.00;91.40;;;;;;4899085;28;87908;-71
2022/12/21 07:30:28;;;;;;;8.00;1.90;;;8.10;91.80;;;;;;4895088;28;86784;-71
2022/12/21 07:32:54;;;;;;;5.95;1.60;;;8.10;92.00;;;;;;4889489;28;88502;-71
2022/12/21 07:35:21;;;;;;;11.23;2.00;;;8.10;91.60;;;;;;4890017;28;87400;-71
2022/12/21 07:37:48;;;;;;;5.03;1.42;;;8.10;91.40;;;;;;4896913;28;86695;-71
2022/12/21 07:40:17;;;;;;;6.72;2.28;;;8.10;92.10;;;;;;4884911;28;86885;-71
2022/12/21 07:42:46;;;;;;;7.43;3.13;;;8.10;91.90;;;;;;4899452;28;87381;-71
2022/12/21 07:45:12;;;;;;;6.82;2.50;;;8.10;91.90;;;;;;4896395;28;86870;-71
2022/12/21 07:47:38;;;;;;;9.10;2.38;;;8.10;92.10;;;;;;4899344;28;87011;-71
2022/12/21 07:50:06;;;;;;;5.18;0.70;;;8.10;92.20;;;;;;4892887;28;86462;-71
2022/12/21 07:52:32;;;;;;;7.53;1.98;;;8.10;91.60;;;;;;4887836;28;90226;-71
2022/12/21 07:54:58;;;;;;;6.55;2.78;;;8.20;91.60;;;;;;4897409;28;87903;-71
2022/12/21 07:57:24;;;;;;;6.50;2.60;;;8.00;91.90;;;;;;4900294;28;86871;-73
2022/12/21 07:59:50;;;;;;;10.40;2.63;;;7.80;92.20;;;;;;4897273;28;86300;-71
2022/12/21 08:02:16;;;;;;;9.95;2.65;;;7.70;92.80;;;;;;4894191;28;87057;-71
2022/12/21 08:04:41;;;;;;;9.68;2.72;;;7.50;92.90;;;;;;4898194;28;87324;-71
2022/12/21 08:07:07;;;;;;;7.82;2.63;;;7.40;93.10;;;;;;4895296;28;87357;-72
2022/12/21 08:09:34;;;;;;;9.80;3.08;;;7.30;93.60;;;;;;4896073;28;86187;-73
2022/12/21 08:12:00;;;;;;;8.93;2.80;;;7.30;93.80;;;;;;4889943;28;86711;-73
2022/12/21 08:14:25;;;;;;;7.93;2.67;;;7.30;94.10;;;;;;4896762;28;86413;-73
2022/12/21 08:16:51;;;;;;;8.88;3.10;;;7.30;94.30;;;;;;4896294;28;88156;-73
2022/12/21 08:19:17;;;;;;;11.75;2.85;;;7.20;94.50;;;;;;4896430;28;86970;-73
2022/12/21 08:21:42;;;;;;;14.30;3.75;;;7.30;94.60;;;;;;4899195;28;87250;-72
2022/12/21 08:24:08;;;;;;;11.23;2.97;;;7.20;94.80;;;;;;4892863;28;87204;-73
2022/12/21 08:26:34;;;;;;;11.98;3.30;;;7.10;95.00;;;;;;4892656;28;86681;-73
2022/12/21 08:28:59;;;;;;;10.73;2.40;;;7.00;95.40;;;;;;4896353;28;86387;-73
2022/12/21 08:31:26;;;;;;;9.00;2.58;;;7.00;95.30;;;;;;4896268;28;87089;-72
2022/12/21 08:33:52;;;;;;;9.80;2.47;;;6.90;95.60;;;;;;4884570;28;86967;-73
2022/12/21 08:36:20;;;;;;;9.82;2.78;;;6.90;95.70;;;;;;4890151;28;86829;-73
2022/12/21 08:38:46;;;;;;;10.10;3.20;;;6.80;96.00;;;;;;4891103;28;86636;-73
2022/12/21 08:41:12;;;;;;;10.40;2.55;;;6.80;96.20;;;;;;4890555;28;88462;-73
2022/12/21 08:43:38;;;;;;;10.70;3.42;;;6.70;96.50;;;;;;4891864;28;87804;-73
2022/12/21 08:46:10;;;;;;;9.77;3.13;;;6.70;96.90;;;;;;4888852;28;86582;-72
2022/12/21 08:48:36;;;;;;;23.25;9.23;;;6.70;97.20;;;;;;4886535;28;86919;-73
2022/12/21 08:51:03;;;;;;;30.17;10.80;;;6.70;97.00;;;;;;4889591;28;87052;-73
2022/12/21 08:53:29;;;;;;;12.15;4.63;;;6.80;97.10;;;;;;4891920;28;86300;-73
2022/12/21 08:55:55;;;;;;;13.40;4.13;;;6.80;97.20;;;;;;4884873;28;86851;-72
2022/12/21 08:58:22;;;;;;;6.65;3.58;;;6.90;97.40;;;;;;4892219;28;85816;-72
2022/12/21 09:00:54;;;;;;;8.65;3.08;;;7.00;97.60;;;;;;4890023;28;87241;-73
2022/12/21 09:03:20;;;;;;;11.30;2.88;;;7.00;97.70;;;;;;4894338;28;86856;-73
2022/12/21 09:05:47;;;;;;;15.52;3.47;;;7.10;97.80;;;;;;4893142;28;87986;-73
2022/12/21 09:08:13;;;;;;;8.63;3.35;;;7.30;97.60;;;;;;4892838;28;86588;-73
2022/12/21 09:10:39;;;;;;;11.75;2.75;;;7.30;97.80;;;;;;4893429;28;86946;-73
2022/12/21 09:13:05;;;;;;;9.15;3.85;;;7.40;97.80;;;;;;4895079;28;87552;-73
2022/12/21 09:15:31;;;;;;;6.15;2.38;;;7.60;97.80;;;;;;4892463;28;86357;-71
2022/12/21 09:17:56;;;;;;;6.22;0.80;;;7.70;97.20;;;;;;4888161;28;87024;-73
2022/12/21 09:20:22;;;;;;;3.53;1.00;;;8.20;95.30;;;;;;4882709;28;86619;-71
2022/12/21 09:22:48;;;;;;;3.17;0.40;;;8.70;94.30;;;;;;4897612;28;87872;-71
2022/12/21 09:25:14;;;;;;;2.55;0.40;;;9.00;92.30;;;;;;4892447;28;86801;-72
2022/12/21 09:27:39;;;;;;;7.15;0.45;;;9.40;91.10;;;;;;4892138;28;87030;-73
2022/12/21 09:30:06;;;;;;;4.93;0.43;;;9.70;90.40;;;;;;4896518;28;88206;-72
2022/12/21 09:32:33;;;;;;;4.50;0.50;;;9.90;90.20;;;;;;4886052;28;87881;-71
2022/12/21 09:34:59;;;;;;;3.22;0.40;;;10.00;89.90;;;;;;4892178;28;87084;-73
2022/12/21 09:37:25;;;;;;;13.07;3.75;;;10.10;89.00;;;;;;4892366;28;86288;-72
2022/12/21 09:39:50;;;;;;;2.08;0.50;;;10.10;88.90;;;;;;4897206;28;87330;-73
2022/12/21 09:42:43;;;;;;;5.35;2.00;;;10.20;87.40;;;;;;4885507;28;86940;-72
2022/12/21 09:45:39;;;;;;;3.35;1.13;;;10.30;87.50;;;;;;4895784;28;86323;-72
2022/12/21 09:48:14;;;;;;;6.25;1.60;;;10.30;87.00;;;;;;4885317;28;85611;-72
2022/12/21 09:50:49;;;;;;;4.82;1.58;;;10.20;86.60;;;;;;4889185;28;87345;-72
2022/12/21 09:53:35;;;;;;;8.40;2.80;;;10.20;87.30;;;;;;4895898;28;86721;-72
2022/12/21 09:56:02;;;;;;;5.68;1.73;;;10.20;87.60;;;;;;4891739;28;87946;-72
2022/12/21 09:58:43;;;;;;;7.40;1.38;;;10.30;88.00;;;;;;4900575;28;86909;-72
2022/12/21 10:01:20;;;;;;;3.75;1.00;;;10.30;89.00;;;;;;4888449;28;87043;-73
2022/12/21 10:04:06;;;;;;;;;;;10.40;88.20;;;;;;4896863;28;88261;-73
2022/12/21 10:06:50;;;;;;;8.93;1.55;;;10.40;87.90;;;;;;4896398;28;86763;-72
2022/12/21 10:09:52;;;;;;;3.75;1.10;;;10.50;88.20;;;;;;4895173;28;86817;-72
2022/12/21 10:12:34;;;;;;;6.80;1.48;;;10.40;87.60;;;;;;4897057;28;87186;-72
2022/12/21 10:15:04;;;;;;;8.30;1.60;;;10.50;87.90;;;;;;4886777;28;86881;-72
2022/12/21 10:17:44;;;;;;;8.38;2.38;;;10.50;88.60;;;;;;4892334;28;86779;-72
2022/12/21 10:20:16;;;;;;;8.57;1.70;;;10.40;87.30;;;;;;4901524;28;87487;-72
2022/12/21 10:22:51;;;;;;;5.85;1.73;;;10.20;87.40;;;;;;4890858;28;88217;-73
2022/12/21 10:25:25;;;;;;;8.13;1.75;;;10.00;88.90;;;;;;4900317;28;88288;-72
2022/12/21 10:27:59;;;;;;;4.60;1.70;;;10.00;89.80;;;;;;4890286;28;86657;-72
2022/12/21 10:30:25;;;;;;;9.07;2.25;;;10.00;90.30;;;;;;4893290;28;86690;-72
2022/12/21 10:32:57;;;;;;;5.20;1.75;;;10.00;90.20;;;;;;4873771;28;89138;-72
2022/12/21 10:35:38;;;;;;;6.18;2.08;;;10.10;90.70;;;;;;4898716;28;87950;-72
2022/12/21 10:38:27;;;;;;;5.25;2.00;;;10.20;90.10;;;;;;4891568;28;86639;-73
2022/12/21 10:40:54;;;;;;;9.38;1.98;;;10.20;90.40;;;;;;4894100;28;87169;-72
2022/12/21 10:43:21;;;;;;;5.05;1.88;;;10.20;89.80;;;;;;4898142;28;87542;-72
2022/12/21 10:45:48;;;;;;;7.78;2.30;;;10.20;90.80;;;;;;4897889;28;86565;-73
2022/12/21 10:48:14;;;;;;;7.55;3.78;;;10.20;90.80;;;;;;4885442;28;87748;-73
2022/12/21 10:50:44;;;;;;;7.60;3.40;;;10.30;90.70;;;;;;4897271;28;86622;-73
2022/12/21 10:53:27;;;;;;;9.25;3.17;;;10.30;90.60;;;;;;4896133;28;87493;-72
2022/12/21 10:56:00;;;;;;;8.70;3.20;;;10.30;90.60;;;;;;4895279;28;87046;-72
2022/12/21 10:58:35;;;;;;;6.72;2.58;;;10.30;90.70;;;;;;4890894;28;86291;-72
2022/12/21 11:01:25;;;;;;;6.90;2.25;;;10.30;90.60;;;;;;4892220;28;86638;-72
2022/12/21 11:04:07;;;;;;;7.93;3.20;;;10.20;90.90;;;;;;4894225;28;87329;-72
2022/12/21 11:06:33;;;;;;;6.82;2.63;;;10.20;91.60;;;;;;4890721;28;86216;-72
2022/12/21 11:08:59;;;;;;;8.68;3.15;;;10.30;91.80;;;;;;4886237;28;86656;-72
2022/12/21 11:11:37;;;;;;;6.82;3.35;;;10.40;92.60;;;;;;4889895;28;86265;-72
2022/12/21 11:14:12;;;;;;;5.45;2.63;;;10.40;92.70;;;;;;4892919;28;88390;-72
2022/12/21 11:16:38;;;;;;;5.75;2.47;;;10.50;92.90;;;;;;4885048;28;87354;-72
2022/12/21 11:19:08;;;;;;;10.35;2.90;;;10.60;92.00;;;;;;4889321;28;86999;-73
2022/12/21 11:21:46;;;;;;;6.45;2.78;;;10.60;93.50;;;;;;4886477;28;86880;-73
2022/12/21 11:24:27;;;;;;;8.70;3.38;;;10.60;91.70;;;;;;4888498;28;86820;-72
2022/12/21 11:27:01;;;;;;;6.60;2.92;;;10.40;91.60;;;;;;4888328;28;87370;-73
2022/12/21 11:29:34;;;;;;;8.63;3.08;;;10.40;91.80;;;;;;4891070;28;86805;-73
2022/12/21 11:32:08;;;;;;;5.90;2.92;;;10.40;91.80;;;;;;4893100;28;86579;-72
2022/12/21 11:34:45;;;;;;;8.90;3.58;;;10.50;91.90;;;;;;4890429;28;87775;-72
2022/12/21 11:37:23;;;;;;;8.77;3.38;;;10.50;91.90;;;;;;4884697;28;87426;-72
2022/12/21 11:39:49;;;;;;;7.50;3.40;;;10.50;91.50;;;;;;4893497;28;89028;-72
2022/12/21 11:42:20;;;;;;;8.07;3.58;;;10.60;91.40;;;;;;4890031;28;86729;-72
2022/12/21 11:44:51;;;;;;;6.53;3.45;;;10.60;91.20;;;;;;4890359;28;87284;-72
2022/12/21 11:47:19;;;;;;;10.80;4.63;;;10.60;91.00;;;;;;4888599;28;86927;-72
2022/12/21 11:50:24;;;;;;;7.38;3.83;;;10.50;91.00;;;;;;4885729;28;86712;-73
2022/12/21 11:52:59;;;;;;;6.40;2.90;;;10.50;91.40;;;;;;4886139;28;87111;-73
2022/12/21 11:55:35;;;;;;;9.30;3.72;;;10.50;91.30;;;;;;4889936;28;87323;-73
2022/12/21 11:58:23;;;;;;;6.45;3.30;;;10.50;91.30;;;;;;4886094;28;86174;-73
2022/12/21 12:01:35;;;;;;;10.15;3.33;;;10.40;91.70;;;;;;4884097;28;88418;-72
2022/12/21 12:04:11;;;;;;;6.38;3.53;;;10.30;91.80;;;;;;4882084;28;87412;-73
2022/12/21 12:07:13;;;;;;;10.63;5.05;;;10.30;91.60;;;;;;4882095;28;88247;-72
2022/12/21 12:10:15;;;;;;;8.02;3.58;;;10.40;91.50;;;;;;4888858;28;87964;-73
2022/12/21 12:12:50;;;;;;;;;;;10.40;91.70;;;;;;4889285;28;87176;-73
2022/12/21 12:15:53;;;;;;;11.23;4.15;;;10.40;91.60;;;;;;4886705;28;87134;-72
2022/12/21 12:18:25;;;;;;;6.95;3.20;;;10.40;91.40;;;;;;4891865;28;87140;-73
2022/12/21 12:21:12;;;;;;;6.68;3.17;;;10.30;91.30;;;;;;4892819;28;87027;-73
2022/12/21 12:23:45;;;;;;;8.05;3.20;;;10.30;91.40;;;;;;4890806;28;86423;-73
2022/12/21 12:26:35;;;;;;;7.00;3.25;;;10.40;91.70;;;;;;4888753;28;85731;-72
2022/12/21 12:29:01;;;;;;;10.65;3.60;;;10.40;91.50;;;;;;4894691;28;87591;-74
2022/12/21 12:31:47;;;;;;;14.63;7.13;;;10.30;91.30;;;;;;4895000;28;86555;-73
2022/12/21 12:34:41;;;;;;;9.93;5.20;;;10.30;91.40;;;;;;4891112;28;87320;-74
2022/12/21 12:37:24;;;;;;;10.18;4.15;;;10.20;91.60;;;;;;4889484;28;86873;-72
2022/12/21 12:40:05;;;;;;;14.80;5.53;;;10.10;91.70;;;;;;4886101;28;87289;-72
2022/12/21 12:42:57;;;;;;;12.57;5.38;;;10.10;91.80;;;;;;4887520;28;86604;-73
2022/12/21 12:45:33;;;;;;;12.43;5.45;;;10.10;91.70;;;;;;4890520;28;86840;-73
2022/12/21 12:48:17;;;;;;;11.40;4.75;;;10.10;91.90;;;;;;4890705;28;86747;-72
2022/12/21 12:50:58;;;;;;;9.45;3.50;;;10.10;92.00;;;;;;4891464;28;87816;-72
2022/12/21 12:53:34;;;;;;;15.48;4.50;;;10.00;91.70;;;;;;4893352;28;86262;-72
2022/12/21 12:56:26;;;;;;;8.65;4.10;;;10.00;92.10;;;;;;4886833;28;87051;-72
2022/12/21 12:59:02;;;;;;;11.52;4.85;;;10.00;92.40;;;;;;4885953;28;86760;-72
2022/12/21 13:01:40;;;;;;;8.25;4.05;;;10.00;92.10;;;;;;4891537;28;88552;-72
2022/12/21 13:04:30;;;;;;;9.27;3.90;;;10.00;92.00;;;;;;4887643;28;88086;-72
2022/12/21 13:07:29;;;;;;;8.15;3.22;;;9.90;92.30;;;;;;4887364;28;86914;-72
2022/12/21 13:10:22;;;;;;;7.45;3.17;;;10.00;92.20;;;;;;4839526;28;86920;-72
2022/12/21 13:13:23;;;;;;;10.13;3.30;;;9.90;92.20;;;;;;4883627;28;87313;-72
2022/12/21 13:16:00;;;;;;;10.02;3.45;;;9.90;92.50;;;;;;4867652;28;86951;-72
2022/12/21 13:18:44;;;;;;;10.40;2.60;;;9.90;92.50;;;;;;4890941;28;86551;-72
2022/12/21 13:21:11;;;;;;;6.78;2.40;;;10.00;92.60;;;;;;4888896;28;86108;-72
2022/12/21 13:23:47;;;;;;;9.48;2.90;;;10.00;92.30;;;;;;4890113;28;87791;-72
2022/12/21 13:26:26;;;;;;;13.35;2.95;;;10.00;92.40;;;;;;4885862;28;87128;-72
2022/12/21 13:29:05;;;;;;;6.68;2.30;;;9.90;92.40;;;;;;4897361;28;87265;-72
2022/12/21 13:31:41;;;;;;;8.95;2.85;;;10.00;92.20;;;;;;4892120;28;86744;-72
2022/12/21 13:34:18;;;;;;;10.32;3.00;;;10.00;92.10;;;;;;4890041;28;87110;-73
2022/12/21 13:36:45;;;;;;;8.40;3.13;;;10.00;92.10;;;;;;4893667;28;86646;-73
2022/12/21 13:39:36;;;;;;;8.85;3.00;;;10.00;92.10;;;;;;4893439;28;86798;-73
2022/12/21 13:42:12;;;;;;;7.78;3.00;;;10.00;92.20;;;;;;4888737;28;86911;-72
2022/12/21 13:44:59;;;;;;;7.10;3.00;;;10.10;92.30;;;;;;4880702;28;86720;-72
2022/12/21 13:47:28;;;;;;;10.05;2.80;;;10.10;92.20;;;;;;4888398;28;86194;-72
2022/12/21 13:50:03;;;;;;;5.25;2.53;;;10.20;92.00;;;;;;4889357;28;87074;-72
2022/12/21 13:52:51;;;;;;;8.00;2.40;;;10.20;92.10;;;;;;4880422;28;87006;-71
2022/12/21 13:55:34;;;;;;;5.53;2.38;;;10.20;92.10;;;;;;4891087;28;88384;-71
2022/12/21 13:58:21;;;;;;;7.05;2.30;;;10.20;92.20;;;;;;4883914;28;90038;-72
2022/12/21 14:01:25;;;;;;;5.63;2.00;;;10.30;92.10;;;;;;4890038;28;86678;-71
2022/12/21 14:04:13;;;;;;;7.25;1.85;;;10.30;92.00;;;;;;4866067;28;86862;-71
2022/12/21 14:06:39;;;;;;;6.65;2.25;;;10.30;91.80;;;;;;4890276;28;90172;-71
2022/12/21 14:09:26;;;;;;;6.25;1.95;;;10.20;92.20;;;;;;4888633;28;87544;-71
2022/12/21 14:12:10;;;;;;;5.53;1.88;;;10.20;92.40;;;;;;4891014;28;87047;-72
2022/12/21 14:15:01;;;;;;;6.32;2.17;;;10.30;92.20;;;;;;4892305;28;86282;-73
2022/12/21 14:17:33;;;;;;;7.07;2.10;;;10.40;91.90;;;;;;4891561;28;86990;-72
2022/12/21 14:20:33;;;;;;;8.73;2.72;;;10.40;92.00;;;;;;4888126;28;86678;-72
2022/12/21 14:23:01;;;;;;;8.35;2.15;;;10.50;91.80;;;;;;4888731;28;87812;-72
2022/12/21 14:25:29;;;;;;;9.45;2.63;;;10.50;91.60;;;;;;4892860;28;87102;-72
2022/12/21 14:28:31;;;;;;;7.10;3.10;;;10.50;91.70;;;;;;4897513;28;87847;-72
2022/12/21 14:31:21;;;;;;;7.93;3.08;;;10.40;91.60;;;;;;4882624;28;86782;-72
2022/12/21 14:33:54;;;;;;;;;;;10.40;92.00;;;;;;4891717;28;87000;-72
2022/12/21 14:36:20;;;;;;;44.95;16.58;;;10.30;92.30;;;;;;4891146;28;86960;-71
2022/12/21 14:39:00;;;;;;;12.75;6.00;;;10.30;92.60;;;;;;4891152;28;87743;-71
2022/12/21 14:41:38;;;;;;;16.55;5.80;;;10.30;93.00;;;;;;4889387;28;86220;-71
2022/12/21 14:44:12;;;;;;;12.18;3.00;;;10.30;93.10;;;;;;4895894;28;86664;-72
2022/12/21 14:47:21;;;;;;;14.00;7.30;;;10.30;93.00;;;;;;4895627;28;86800;-72
2022/12/21 14:49:47;;;;;;;14.15;4.38;;;10.30;93.40;;;;;;4899010;28;88196;-72
2022/12/21 14:52:18;;;;;;;20.85;7.88;;;10.20;93.80;;;;;;4899341;28;87837;-72
2022/12/21 14:54:45;;;;;;;12.18;4.40;;;10.30;94.10;;;;;;4899791;28;86537;-72
2022/12/21 14:57:11;;;;;;;7.82;3.00;;;10.20;93.90;;;;;;4894743;28;87534;-71
2022/12/21 14:59:59;;;;;;;12.02;2.75;;;10.20;94.20;;;;;;4896638;28;86726;-72
2022/12/21 15:02:43;;;;;;;10.50;3.00;;;10.20;94.20;;;;;;4888483;28;87123;-72
2022/12/21 15:05:34;;;;;;;15.20;3.50;;;10.20;94.70;;;;;;4891604;28;86432;-72
2022/12/21 15:08:02;;;;;;;11.73;3.78;;;10.20;94.90;;;;;;4890838;28;86044;-72
2022/12/21 15:10:35;;;;;;;11.45;3.63;;;10.10;95.10;;;;;;4892390;28;87493;-72
2022/12/21 15:13:01;;;;;;;12.88;4.30;;;10.10;95.00;;;;;;4896774;28;86704;-71
2022/12/21 15:15:36;;;;;;;19.13;4.55;;;10.10;95.00;;;;;;4898125;28;87794;-71
2022/12/21 15:18:27;;;;;;;13.50;5.05;;;10.10;95.10;;;;;;4897553;28;86746;-72
2022/12/21 15:20:55;;;;;;;14.10;5.40;;;10.10;95.30;;;;;;4894923;28;87775;-72
2022/12/21 15:23:22;;;;;;;15.23;5.80;;;10.10;95.50;;;;;;4896898;28;87093;-72
2022/12/21 15:25:53;;;;;;;19.33;5.32;;;10.00;95.60;;;;;;4890973;28;86912;-71
2022/12/21 15:28:25;;;;;;;15.90;5.20;;;10.00;95.80;;;;;;4894377;28;86620;-72
2022/12/21 15:30:59;;;;;;;27.65;5.72;;;9.90;96.00;;;;;;4890871;28;87274;-71
2022/12/21 15:33:33;;;;;;;22.63;5.55;;;9.90;96.20;;;;;;4894104;28;86961;-72
2022/12/21 15:36:06;;;;;;;20.17;5.88;;;9.90;96.30;;;;;;4891202;28;86880;-71
2022/12/21 15:38:43;;;;;;;14.48;5.03;;;9.90;96.40;;;;;;4890694;28;86472;-72
2022/12/21 15:41:19;;;;;;;16.02;5.65;;;9.80;96.50;;;;;;4889514;28;87984;-71
2022/12/21 15:43:47;;;;;;;19.30;6.25;;;9.80;96.80;;;;;;4885542;28;87881;-72
2022/12/21 15:46:19;;;;;;;20.85;5.40;;;9.80;96.80;;;;;;4894530;28;86982;-71
2022/12/21 15:49:04;;;;;;;20.48;5.97;;;9.70;97.10;;;;;;4888768;28;86384;-71
2022/12/21 15:51:32;;;;;;;23.50;5.43;;;9.70;97.30;;;;;;4894476;28;87633;-71
2022/12/21 15:54:14;;;;;;;17.98;5.75;;;9.70;97.30;;;;;;4890654;28;86881;-72
2022/12/21 15:57:03;;;;;;;23.98;6.38;;;9.70;97.60;;;;;;4886201;28;86720;-71
2022/12/21 15:59:34;;;;;;;31.23;6.78;;;9.60;97.50;;;;;;4890118;28;86132;-71
2022/12/21 16:02:02;;;;;;;26.80;6.85;;;9.70;97.60;;;;;;4888644;28;87315;-71
2022/12/21 16:04:28;;;;;;;21.70;7.35;;;9.70;97.50;;;;;;4890762;28;86977;-71
2022/12/21 16:06:58;;;;;;;19.77;7.50;;;9.70;97.30;;;;;;4890769;28;87631;-72
2022/12/21 16:09:26;;;;;;;20.67;7.70;;;9.70;97.30;;;;;;4883126;28;87792;-71
2022/12/21 16:11:52;;;;;;;28.80;8.25;;;9.60;97.30;;;;;;4891856;28;87348;-71
2022/12/21 16:14:22;;;;;;;24.10;8.00;;;9.60;97.40;;;;;;4891896;28;86841;-71
2022/12/21 16:17:01;;;;;;;22.88;8.85;;;9.50;97.40;;;;;;4885109;28;87107;-71
2022/12/21 16:19:34;;;;;;;24.60;9.07;;;9.50;97.70;;;;;;4879406;28;87996;-71
2022/12/21 16:22:11;;;;;;;18.42;8.88;;;9.40;97.90;;;;;;4874893;28;88152;-71
2022/12/21 16:24:38;;;;;;;20.38;8.65;;;9.40;97.80;;;;;;4894123;28;86422;-71
2022/12/21 16:27:08;;;;;;;19.15;7.68;;;9.40;98.10;;;;;;4889119;28;86723;-71
2022/12/21 16:29:37;;;;;;;;;;;9.30;97.90;;;;;;4886267;28;86912;-71
2022/12/21 16:32:03;;;;;;;18.10;7.00;;;9.30;98.00;;;;;;4894443;28;88281;-71
2022/12/21 16:34:38;;;;;;;15.25;6.53;;;9.20;98.40;;;;;;4895663;28;87119;-71
2022/12/21 16:37:09;;;;;;;16.85;7.32;;;9.20;98.80;;;;;;4887756;28;88078;-71
2022/12/21 16:39:39;;;;;;;16.17;7.20;;;9.20;98.80;;;;;;4883395;28;87356;-71
2022/12/21 16:42:05;;;;;;;16.30;6.47;;;9.30;98.70;;;;;;4893081;28;86735;-71
2022/12/21 16:44:38;;;;;;;16.25;5.90;;;9.40;98.50;;;;;;4890040;28;87503;-72
2022/12/21 16:47:12;;;;;;;14.75;5.55;;;9.50;98.30;;;;;;4891590;28;86788;-71
2022/12/21 16:49:39;;;;;;;14.63;6.72;;;9.40;98.00;;;;;;4893013;28;87459;-71
2022/12/21 16:52:07;;;;;;;25.88;6.70;;;9.40;98.10;;;;;;4892224;28;87097;-71
2022/12/21 16:54:39;;;;;;;18.75;5.93;;;9.30;98.30;;;;;;4885261;28;86793;-71
2022/12/21 16:57:17;;;;;;;18.30;6.93;;;9.30;98.40;;;;;;4883244;28;89136;-70
2022/12/21 16:59:45;;;;;;;17.90;6.13;;;9.30;98.50;;;;;;4906486;28;86342;-70
2022/12/21 17:02:14;;;;;;;15.43;6.65;;;9.20;98.50;;;;;;4898244;28;87297;-70
2022/12/21 17:04:40;;;;;;;15.50;5.88;;;9.10;98.70;;;;;;4897569;28;87237;-71
2022/12/21 17:07:18;;;;;;;14.48;6.53;;;9.10;98.90;;;;;;4894533;28;86875;-71
2022/12/21 17:09:43;;;;;;;12.98;6.05;;;9.20;98.70;;;;;;4898574;28;86257;-71
2022/12/21 17:12:39;;;;;;;21.65;6.85;;;9.20;98.60;;;;;;4888095;28;87011;-71
2022/12/21 17:15:25;;;;;;;14.73;7.50;;;9.10;98.70;;;;;;4878681;28;86917;-71
2022/12/21 17:17:51;;;;;;;20.77;8.23;;;9.10;98.70;;;;;;4892042;28;86971;-71